createdAt,value
2022-08-16T00:01:15.136Z,16.80
2022-08-16T00:03:42.222Z,16.80
2022-08-16T00:06:10.145Z,16.80
2022-08-16T00:08:37.905Z,16.80
2022-08-16T00:11:15.916Z,16.80
2022-08-16T00:13:53.772Z,16.80
2022-08-16T00:17:11.544Z,16.80
2022-08-16T00:19:13.630Z,16.80
2022-08-16T00:21:41.977Z,16.80
2022-08-16T00:24:12.054Z,16.80
2022-08-16T00:26:45.144Z,16.80
2022-08-16T00:29:16.024Z,16.80
2022-08-16T00:31:59.883Z,16.80
2022-08-16T00:34:43.896Z,16.70
2022-08-16T00:37:18.647Z,16.70
2022-08-16T00:39:57.524Z,16.70
2022-08-16T00:42:31.755Z,16.70
2022-08-16T00:45:08.248Z,16.70
2022-08-16T00:47:42.511Z,16.70
2022-08-16T00:50:15.955Z,16.70
2022-08-16T00:52:50.401Z,16.70
2022-08-16T00:55:18.945Z,16.70
2022-08-16T00:57:58.927Z,16.80
2022-08-16T01:00:30.411Z,16.70
2022-08-16T01:02:59.763Z,16.70
2022-08-16T01:05:27.576Z,16.70
2022-08-16T01:07:55.307Z,16.70
2022-08-16T01:10:31.457Z,16.70
2022-08-16T01:13:12.106Z,16.80
2022-08-16T01:15:47.611Z,16.70
2022-08-16T01:18:39.963Z,16.70
2022-08-16T01:21:33.707Z,16.70
2022-08-16T01:24:52.502Z,16.60
2022-08-16T01:27:17.518Z,16.60
2022-08-16T01:30:03.473Z,16.60
2022-08-16T01:32:34.408Z,16.50
2022-08-16T01:35:05.980Z,16.50
2022-08-16T01:37:54.132Z,16.50
2022-08-16T01:40:25.640Z,16.40
2022-08-16T01:42:55.334Z,16.40
2022-08-16T01:45:23.082Z,16.40
2022-08-16T01:47:52.198Z,16.30
2022-08-16T01:51:04.989Z,16.30
2022-08-16T01:53:10.125Z,16.30
2022-08-16T01:55:40.743Z,16.30
2022-08-16T01:58:07.996Z,16.20
2022-08-16T02:00:37.824Z,16.20
2022-08-16T02:03:04.940Z,16.20
2022-08-16T02:05:32.211Z,16.20
2022-08-16T02:08:02.852Z,16.10
2022-08-16T02:10:31.371Z,16.10
2022-08-16T02:13:01.252Z,16.10
2022-08-16T02:15:35.449Z,16.00
2022-08-16T02:18:08.011Z,16.00
2022-08-16T02:20:42.545Z,16.00
2022-08-16T02:23:09.816Z,16.00
2022-08-16T02:25:51.038Z,16.00
2022-08-16T02:28:20.636Z,15.90
2022-08-16T02:30:52.069Z,15.90
2022-08-16T02:33:24.990Z,15.80
2022-08-16T02:36:14.065Z,15.80
2022-08-16T02:38:41.952Z,15.90
2022-08-16T02:41:12.003Z,15.90
2022-08-16T02:43:39.640Z,15.90
2022-08-16T02:46:08.694Z,15.80
2022-08-16T02:48:38.645Z,15.80
2022-08-16T02:51:10.401Z,15.80
2022-08-16T02:53:43.067Z,15.70
2022-08-16T02:56:12.021Z,15.70
2022-08-16T02:58:44.104Z,15.70
2022-08-16T03:01:17.034Z,15.80
2022-08-16T03:04:30.062Z,15.80
2022-08-16T03:06:43.110Z,15.80
2022-08-16T03:09:13.797Z,15.80
2022-08-16T03:11:42.425Z,15.80
2022-08-16T03:14:09.331Z,15.80
2022-08-16T03:16:59.831Z,15.80
2022-08-16T03:19:42.181Z,15.80
2022-08-16T03:22:19.295Z,15.90
2022-08-16T03:25:01.690Z,15.90
2022-08-16T03:27:30.914Z,15.90
2022-08-16T03:30:15.306Z,15.90
2022-08-16T03:32:47.361Z,16.00
2022-08-16T03:35:17.722Z,16.00
2022-08-16T03:38:02.145Z,16.00
2022-08-16T03:40:35.273Z,16.00
2022-08-16T03:43:20.281Z,16.10
2022-08-16T03:45:52.544Z,16.10
2022-08-16T03:48:36.410Z,16.10
2022-08-16T03:51:12.505Z,16.20
2022-08-16T03:53:41.723Z,16.20
2022-08-16T03:56:20.015Z,16.20
2022-08-16T03:58:51.019Z,16.20
2022-08-16T04:01:21.395Z,16.30
2022-08-16T04:03:50.396Z,16.30
2022-08-16T04:06:17.449Z,16.40
2022-08-16T04:08:45.144Z,16.40
2022-08-16T04:11:12.309Z,16.40
2022-08-16T04:13:59.360Z,16.40
2022-08-16T04:16:34.428Z,16.40
2022-08-16T04:19:04.240Z,16.50
2022-08-16T04:21:34.509Z,16.60
2022-08-16T04:24:02.166Z,16.60
2022-08-16T04:26:31.063Z,16.60
2022-08-16T04:29:16.841Z,16.70
2022-08-16T04:31:56.659Z,16.80
2022-08-16T04:34:34.287Z,16.90
2022-08-16T04:37:02.105Z,17.00
2022-08-16T04:39:45.629Z,17.20
2022-08-16T04:42:17.899Z,17.30
2022-08-16T04:44:53.673Z,17.40
2022-08-16T04:47:24.776Z,17.50
2022-08-16T04:49:52.774Z,17.50
2022-08-16T04:52:34.679Z,17.70
2022-08-16T04:55:08.210Z,17.70
2022-08-16T04:57:35.405Z,17.80
2022-08-16T05:00:31.329Z,18.00
2022-08-16T05:02:58.626Z,18.00
2022-08-16T05:05:30.689Z,18.10
2022-08-16T05:08:28.398Z,18.20
2022-08-16T05:10:49.056Z,18.10
2022-08-16T05:13:18.079Z,18.20
2022-08-16T05:15:45.995Z,18.30
2022-08-16T05:18:19.868Z,18.40
2022-08-16T05:21:01.380Z,18.50
2022-08-16T05:23:36.057Z,18.50
2022-08-16T05:26:03.153Z,18.60
2022-08-16T05:28:30.990Z,18.60
2022-08-16T05:31:06.719Z,18.70
2022-08-16T05:33:33.926Z,18.70
2022-08-16T05:36:03.851Z,18.80
2022-08-16T05:38:38.913Z,18.90
2022-08-16T05:41:07.357Z,19.10
2022-08-16T05:43:43.396Z,19.20
2022-08-16T05:46:28.827Z,19.30
2022-08-16T05:49:05.439Z,19.50
2022-08-16T05:51:37.598Z,19.70
2022-08-16T05:54:09.666Z,19.70
2022-08-16T05:56:39.956Z,19.90
2022-08-16T05:59:06.911Z,20.00
2022-08-16T06:01:38.321Z,20.20
2022-08-16T06:04:13.477Z,20.20
2022-08-16T06:06:56.224Z,20.40
2022-08-16T06:09:25.961Z,20.60
2022-08-16T06:12:27.970Z,20.80
2022-08-16T06:14:59.392Z,21.00
2022-08-16T06:17:42.812Z,21.20
2022-08-16T06:20:23.578Z,21.30
2022-08-16T06:22:58.561Z,21.50
2022-08-16T06:25:36.808Z,21.60
2022-08-16T06:28:17.299Z,21.50
2022-08-16T06:30:58.123Z,21.50
2022-08-16T06:33:25.159Z,21.60
2022-08-16T06:35:54.983Z,21.60
2022-08-16T06:38:32.172Z,21.70
2022-08-16T06:41:04.110Z,21.90
2022-08-16T06:43:32.211Z,21.70
2022-08-16T06:46:00.970Z,21.40
2022-08-16T06:48:32.991Z,21.20
2022-08-16T06:51:02.937Z,21.20
2022-08-16T06:53:33.562Z,21.50
2022-08-16T06:56:06.736Z,22.30
2022-08-16T06:58:42.135Z,22.80
2022-08-16T07:01:15.736Z,23.40
2022-08-16T07:03:55.938Z,23.80
2022-08-16T07:06:26.543Z,24.10
2022-08-16T14:19:49.146Z,21.10
2022-08-16T14:22:31.133Z,21.00
2022-08-16T14:24:59.784Z,21.00
2022-08-16T14:27:28.978Z,21.10
2022-08-16T14:29:58.207Z,21.20
2022-08-16T14:32:33.359Z,21.20
2022-08-16T14:35:07.431Z,21.20
2022-08-16T14:37:35.232Z,21.30
2022-08-16T14:40:03.590Z,21.20
2022-08-16T14:42:31.062Z,21.20
2022-08-16T14:45:00.378Z,21.40
2022-08-16T14:47:34.085Z,21.50
2022-08-16T14:50:01.365Z,21.50
2022-08-16T14:52:53.977Z,21.50
2022-08-16T14:55:15.950Z,21.50
2022-08-16T14:57:43.745Z,21.70
2022-08-16T15:00:13.529Z,21.80
2022-08-16T15:02:42.932Z,21.70
2022-08-16T15:05:11.961Z,21.90
2022-08-16T15:07:40.286Z,21.90
2022-08-16T15:10:24.447Z,21.90
2022-08-16T15:12:58.425Z,22.00
2022-08-16T15:15:28.419Z,22.10
2022-08-16T15:17:56.508Z,21.90
2022-08-16T15:20:29.165Z,22.00
2022-08-16T15:22:57.990Z,21.90
2022-08-16T15:25:33.422Z,21.70
2022-08-16T15:28:05.667Z,21.80
2022-08-16T15:30:57.925Z,21.70
2022-08-16T15:33:27.369Z,21.70
2022-08-16T15:35:55.414Z,21.70
2022-08-16T15:38:57.585Z,21.60
2022-08-16T15:41:38.255Z,21.60
2022-08-16T15:44:13.899Z,21.50
2022-08-16T15:46:54.553Z,21.50
2022-08-16T15:49:37.121Z,21.60
2022-08-16T15:52:12.826Z,21.80
2022-08-16T15:54:52.243Z,21.60
2022-08-16T15:57:26.664Z,21.60
2022-08-16T15:59:55.937Z,21.50
2022-08-16T16:02:31.117Z,21.50
2022-08-16T16:05:09.881Z,21.50
2022-08-16T16:07:40.674Z,21.50
2022-08-16T16:10:13.258Z,21.30
2022-08-16T16:12:51.307Z,21.40
2022-08-16T16:15:25.675Z,21.40
2022-08-16T16:17:54.243Z,21.20
2022-08-16T16:20:24.242Z,21.40
2022-08-16T16:22:59.340Z,21.40
2022-08-16T16:25:29.313Z,21.60
2022-08-16T16:27:59.752Z,21.50
2022-08-16T16:30:37.594Z,21.30
2022-08-16T16:33:21.163Z,21.20
2022-08-16T16:36:00.097Z,21.10
2022-08-16T16:38:31.152Z,21.10
2022-08-16T16:41:09.403Z,21.10
2022-08-16T16:43:43.055Z,21.10
2022-08-16T16:46:42.347Z,21.10
2022-08-16T16:49:04.078Z,21.00
2022-08-16T16:51:31.713Z,21.00
2022-08-16T16:54:00.618Z,21.10
2022-08-16T16:56:33.233Z,21.10
2022-08-16T16:59:09.726Z,21.10
2022-08-16T17:01:56.712Z,21.00
2022-08-16T17:04:31.239Z,20.90
2022-08-16T17:07:01.899Z,20.80
2022-08-16T17:09:29.540Z,20.70
2022-08-16T17:11:57.103Z,20.70
2022-08-16T17:14:31.955Z,20.60
2022-08-16T17:17:06.886Z,20.60
2022-08-16T17:19:40.785Z,20.60
2022-08-16T17:22:14.316Z,20.50
2022-08-16T17:24:50.345Z,20.60
2022-08-16T17:27:32.554Z,20.60
2022-08-16T17:30:15.987Z,20.60
2022-08-16T17:32:50.175Z,20.50
2022-08-16T17:35:21.926Z,20.50
2022-08-16T17:37:51.442Z,20.40
2022-08-16T17:40:47.077Z,20.40
2022-08-16T17:43:19.310Z,20.50
2022-08-16T17:45:47.103Z,20.60
2022-08-16T17:48:14.305Z,20.50
2022-08-16T17:50:42.276Z,20.50
2022-08-16T17:53:10.468Z,20.50
2022-08-16T17:55:39.828Z,20.50
2022-08-16T17:58:22.357Z,20.50
2022-08-16T18:00:56.211Z,20.50
2022-08-16T18:04:02.360Z,20.60
2022-08-16T18:06:17.843Z,20.50
2022-08-16T18:08:48.530Z,20.50
2022-08-16T18:11:18.278Z,20.50
2022-08-16T18:13:46.381Z,20.50
2022-08-16T18:16:16.592Z,20.40
2022-08-16T18:18:47.080Z,20.40
2022-08-16T18:21:33.918Z,20.40
2022-08-16T18:24:01.363Z,20.40
2022-08-16T18:26:28.367Z,20.30
2022-08-16T18:28:55.336Z,20.30
2022-08-16T18:31:22.259Z,20.30
2022-08-16T18:33:49.729Z,20.30
2022-08-16T18:36:21.914Z,20.30
2022-08-16T18:38:50.839Z,20.30
2022-08-16T18:41:19.198Z,20.30
2022-08-16T18:43:54.295Z,20.20
2022-08-16T18:46:33.180Z,20.20
2022-08-16T18:49:00.123Z,20.20
2022-08-16T18:51:27.142Z,20.20
2022-08-16T18:53:54.450Z,20.20
2022-08-16T18:56:21.558Z,20.20
2022-08-16T18:58:48.781Z,20.10
2022-08-16T19:01:16.908Z,20.10
2022-08-16T19:03:43.961Z,20.10
2022-08-16T19:06:15.212Z,20.10
2022-08-16T19:08:44.685Z,20.20
2022-08-16T19:11:23.412Z,20.10
2022-08-16T19:13:50.835Z,20.10
2022-08-16T19:16:17.874Z,20.10
2022-08-16T19:18:49.236Z,20.20
2022-08-16T19:21:16.459Z,20.20
2022-08-16T19:23:44.232Z,20.20
2022-08-16T19:26:24.752Z,20.20
2022-08-16T19:28:58.617Z,20.20
2022-08-16T19:31:33.454Z,20.20
2022-08-16T19:34:01.882Z,20.10
2022-08-16T19:36:35.837Z,20.20
2022-08-16T19:39:15.202Z,20.20
2022-08-16T19:41:45.934Z,20.20
2022-08-16T19:44:13.499Z,20.20
2022-08-16T19:46:45.815Z,20.20
2022-08-16T19:49:15.921Z,20.30
2022-08-16T19:51:44.755Z,20.30
2022-08-16T19:54:11.637Z,20.30
2022-08-16T19:56:38.648Z,20.30
2022-08-16T19:59:22.209Z,20.30
2022-08-16T20:01:53.156Z,20.20
2022-08-16T20:04:21.831Z,20.20
2022-08-16T20:06:49.330Z,20.20
2022-08-16T20:09:16.328Z,20.20
2022-08-16T20:11:45.202Z,20.30
2022-08-16T20:14:19.281Z,20.30
2022-08-16T20:16:52.522Z,20.20
2022-08-16T20:19:20.289Z,20.20
2022-08-16T20:21:47.246Z,20.20
2022-08-16T20:24:33.007Z,20.20
2022-08-16T20:27:01.571Z,20.20
2022-08-16T20:29:29.243Z,20.20
2022-08-16T20:31:56.475Z,20.20
2022-08-16T20:34:23.527Z,20.20
2022-08-16T20:36:50.458Z,20.20
2022-08-16T20:39:17.567Z,20.20
2022-08-16T20:41:44.696Z,20.30
2022-08-16T20:44:12.312Z,20.30
2022-08-16T20:46:39.916Z,20.20
2022-08-16T20:49:09.274Z,20.30
2022-08-16T20:51:49.937Z,20.20
2022-08-16T20:54:19.530Z,20.20
2022-08-16T20:56:46.678Z,20.20
2022-08-16T20:59:13.684Z,20.10
2022-08-16T21:01:46.172Z,20.10
2022-08-16T21:04:17.073Z,20.00
2022-08-16T21:06:53.113Z,20.00
2022-08-16T21:09:27.244Z,20.00
2022-08-16T21:11:56.225Z,20.00
2022-08-16T21:14:23.951Z,20.00
2022-08-16T21:16:51.416Z,19.90
2022-08-16T21:19:19.011Z,19.90
2022-08-16T21:21:46.072Z,19.80
2022-08-16T21:24:13.319Z,19.80
2022-08-16T21:26:40.525Z,19.80
2022-08-16T21:29:17.171Z,19.80
2022-08-16T21:31:44.521Z,19.70
2022-08-16T21:34:11.500Z,19.70
2022-08-16T21:36:38.388Z,19.70
2022-08-16T21:39:06.419Z,19.70
2022-08-16T21:41:35.485Z,19.70
2022-08-16T21:44:02.524Z,19.60
2022-08-16T21:46:29.473Z,19.60
2022-08-16T21:48:56.425Z,19.60
2022-08-16T21:51:23.338Z,19.60
2022-08-16T21:53:50.263Z,19.60
2022-08-16T21:56:17.665Z,19.60
2022-08-16T21:58:53.266Z,19.60
2022-08-16T22:01:23.233Z,19.60
2022-08-16T22:04:03.506Z,19.60
2022-08-16T22:06:39.008Z,19.50
2022-08-16T22:09:07.224Z,19.50
2022-08-16T22:11:36.786Z,19.50
2022-08-16T22:14:04.512Z,19.40
2022-08-16T22:16:36.398Z,19.40
2022-08-16T22:19:04.344Z,19.40
2022-08-16T22:21:32.017Z,19.30
2022-08-16T22:23:59.194Z,19.30
2022-08-16T22:26:32.499Z,19.30
2022-08-16T22:29:06.126Z,19.20
2022-08-16T22:31:33.718Z,19.20
2022-08-16T22:34:02.157Z,19.20
2022-08-16T22:36:30.495Z,19.20
2022-08-16T22:38:59.787Z,19.20
2022-08-16T22:41:31.882Z,19.20
2022-08-16T22:44:00.318Z,19.20
2022-08-16T22:46:27.828Z,19.20
2022-08-16T22:48:54.872Z,19.10
2022-08-16T22:51:24.380Z,19.10
2022-08-16T22:53:52.902Z,19.10
2022-08-16T22:56:20.263Z,19.00
2022-08-16T22:58:47.604Z,19.10
2022-08-16T23:01:15.932Z,19.00
2022-08-16T23:03:43.421Z,19.10
2022-08-16T23:06:12.872Z,19.00
2022-08-16T23:08:41.702Z,19.00
2022-08-16T23:11:22.874Z,19.00
2022-08-16T23:13:55.432Z,19.00
2022-08-16T23:16:33.220Z,19.00
2022-08-16T23:19:07.407Z,19.00
2022-08-16T23:21:37.335Z,19.00
2022-08-16T23:24:06.000Z,18.90
2022-08-16T23:26:44.107Z,18.90
2022-08-16T23:29:23.900Z,18.90
2022-08-16T23:31:55.303Z,18.90
2022-08-16T23:34:25.119Z,18.90
2022-08-16T23:36:52.142Z,18.90
2022-08-16T23:39:19.080Z,18.80
2022-08-16T23:41:46.063Z,18.80
2022-08-16T23:44:55.643Z,18.80
2022-08-16T23:46:59.900Z,18.80
2022-08-16T23:50:01.699Z,18.80
2022-08-16T23:52:13.723Z,18.80
2022-08-16T23:54:40.690Z,18.80
2022-08-16T23:57:08.487Z,18.70
2022-08-16T23:59:52.195Z,18.70
